NKS911 KMCO-KEWR
Flight info
| Callsign | NKS911 |
|---|---|
| Flight time | N/A |
| Altitude | 36000 |
| Route | FATHE4 VIYAP Q87 ALWZZ OGRAE Q99 QUART PHLBO4 |
| Aircraft | A321/M-SDE3FGHIRWY/LB1 |
Departure
| Time | 2026-05-05 15:54 |
|---|---|
| Airport | Orlando International Airport (KMCO) |
Arrival
| Time | N/A |
|---|---|
| Airport | Newark Liberty International Airport (KEWR) |
| Time | Latitude | Longitude | Altitude | Speed | Heading |
|---|---|---|---|---|---|
| 2026-05-05 15:25 | 28.43334 | -81.31518 | 102 ft | 0 kts | 338° |
| 2026-05-05 15:43 | 28.43330 | -81.31516 | 102 ft | 3 kts | 335° |
| 2026-05-05 15:43 | 28.43312 | -81.31504 | 100 ft | 3 kts | 308° |
| 2026-05-05 15:44 | 28.43304 | -81.31483 | 102 ft | 3 kts | 260° |
| 2026-05-05 15:44 | 28.43312 | -81.31460 | 101 ft | 3 kts | 237° |
| 2026-05-05 15:44 | 28.43321 | -81.31444 | 101 ft | 0 kts | 238° |
| 2026-05-05 15:46 | 28.43319 | -81.31448 | 100 ft | 1 kts | 238° |
| 2026-05-05 15:46 | 28.43307 | -81.31470 | 99 ft | 7 kts | 238° |
| 2026-05-05 15:47 | 28.43273 | -81.31539 | 102 ft | 13 kts | 247° |
| 2026-05-05 15:47 | 28.43273 | -81.31616 | 102 ft | 17 kts | 284° |
| 2026-05-05 15:47 | 28.43247 | -81.31795 | 102 ft | 19 kts | 237° |
| 2026-05-05 15:47 | 28.43173 | -81.31917 | 101 ft | 18 kts | 236° |
| 2026-05-05 15:48 | 28.43167 | -81.32015 | 101 ft | 7 kts | 329° |
| 2026-05-05 15:48 | 28.43206 | -81.32008 | 101 ft | 6 kts | 13° |
| 2026-05-05 15:48 | 28.43275 | -81.31995 | 100 ft | 14 kts | 3° |
| 2026-05-05 15:48 | 28.43382 | -81.31996 | 101 ft | 16 kts | 359° |
| 2026-05-05 15:49 | 28.43486 | -81.31998 | 104 ft | 15 kts | 359° |
| 2026-05-05 15:49 | 28.43586 | -81.31999 | 106 ft | 14 kts | 359° |
| 2026-05-05 15:49 | 28.43682 | -81.32001 | 107 ft | 14 kts | 359° |
| 2026-05-05 15:49 | 28.43778 | -81.32002 | 108 ft | 14 kts | 359° |
| 2026-05-05 15:50 | 28.43872 | -81.32003 | 110 ft | 13 kts | 360° |
| 2026-05-05 15:50 | 28.43964 | -81.32003 | 111 ft | 14 kts | 359° |
| 2026-05-05 15:50 | 28.44065 | -81.32005 | 110 ft | 15 kts | 359° |
| 2026-05-05 15:50 | 28.44174 | -81.32007 | 109 ft | 17 kts | 359° |
| 2026-05-05 15:51 | 28.44294 | -81.32008 | 108 ft | 18 kts | 360° |
| 2026-05-05 15:51 | 28.44425 | -81.32008 | 106 ft | 20 kts | 360° |
| 2026-05-05 15:51 | 28.44570 | -81.32010 | 103 ft | 22 kts | 359° |
| 2026-05-05 15:51 | 28.44712 | -81.32012 | 102 ft | 11 kts | 358° |
| 2026-05-05 15:52 | 28.44792 | -81.32017 | 102 ft | 12 kts | 341° |
| 2026-05-05 15:52 | 28.44822 | -81.32098 | 100 ft | 13 kts | 274° |
| 2026-05-05 15:52 | 28.44816 | -81.32201 | 100 ft | 13 kts | 246° |
| 2026-05-05 15:52 | 28.44746 | -81.32230 | 102 ft | 0 kts | 180° |
| 2026-05-05 15:53 | 28.44626 | -81.32229 | 104 ft | 51 kts | 179° |
| 2026-05-05 15:53 | 28.44032 | -81.32219 | 109 ft | 117 kts | 179° |
| 2026-05-05 15:53 | 28.43029 | -81.32212 | 103 ft | 168 kts | 178° |
| 2026-05-05 15:54 | 28.41799 | -81.32200 | 478 ft | 180 kts | 176° |
| 2026-05-05 15:54 | 28.40520 | -81.32165 | 1006 ft | 188 kts | 174° |
| 2026-05-05 15:54 | 28.39194 | -81.32342 | 1486 ft | 198 kts | 195° |
| 2026-05-05 15:54 | 28.37857 | -81.32986 | 1662 ft | 220 kts | 205° |
| 2026-05-05 15:55 | 28.36431 | -81.33861 | 1822 ft | 247 kts | 207° |
| 2026-05-05 15:55 | 28.34987 | -81.35007 | 2283 ft | 266 kts | 226° |
| 2026-05-05 15:55 | 28.33990 | -81.36800 | 3042 ft | 274 kts | 251° |
| 2026-05-05 15:55 | 28.33770 | -81.38943 | 3831 ft | 277 kts | 278° |
| 2026-05-05 15:56 | 28.34434 | -81.40980 | 4640 ft | 277 kts | 305° |
| 2026-05-05 15:56 | 28.35820 | -81.42456 | 5490 ft | 276 kts | 330° |
| 2026-05-05 15:56 | 28.37650 | -81.43091 | 6260 ft | 279 kts | 357° |
| 2026-05-05 15:56 | 28.39574 | -81.42772 | 6962 ft | 283 kts | 14° |
| 2026-05-05 15:57 | 28.41484 | -81.42170 | 7629 ft | 287 kts | 14° |
| 2026-05-05 15:57 | 28.43421 | -81.41557 | 8334 ft | 291 kts | 14° |
| 2026-05-05 15:57 | 28.45379 | -81.40942 | 9071 ft | 293 kts | 13° |
| 2026-05-05 15:57 | 28.47326 | -81.40330 | 9780 ft | 296 kts | 13° |
| 2026-05-05 15:58 | 28.49334 | -81.39702 | 10295 ft | 307 kts | 13° |
| 2026-05-05 15:58 | 28.51473 | -81.39040 | 10433 ft | 330 kts | 13° |
| 2026-05-05 15:58 | 28.53764 | -81.38335 | 10553 ft | 352 kts | 13° |
| 2026-05-05 15:58 | 28.56196 | -81.37582 | 10684 ft | 372 kts | 13° |
| 2026-05-05 15:59 | 28.58732 | -81.36792 | 11099 ft | 381 kts | 13° |
| 2026-05-05 15:59 | 28.61303 | -81.35984 | 11685 ft | 385 kts | 13° |
| 2026-05-05 15:59 | 28.63898 | -81.35162 | 12276 ft | 389 kts | 13° |
| 2026-05-05 15:59 | 28.66517 | -81.34337 | 12867 ft | 392 kts | 12° |
| 2026-05-05 16:00 | 28.69157 | -81.33512 | 13468 ft | 395 kts | 12° |
| 2026-05-05 16:00 | 28.71783 | -81.32694 | 14032 ft | 398 kts | 11° |
| 2026-05-05 16:00 | 28.74465 | -81.31857 | 14569 ft | 401 kts | 11° |
| 2026-05-05 16:00 | 28.77162 | -81.31015 | 15122 ft | 403 kts | 11° |
| 2026-05-05 16:01 | 28.79875 | -81.30164 | 15677 ft | 405 kts | 11° |
| 2026-05-05 16:01 | 28.82606 | -81.29353 | 16229 ft | 405 kts | 7° |
| 2026-05-05 16:01 | 28.85395 | -81.29010 | 16782 ft | 402 kts | 356° |
| 2026-05-05 16:01 | 28.88180 | -81.29182 | 17344 ft | 401 kts | 351° |
| 2026-05-05 16:02 | 28.90972 | -81.29429 | 17899 ft | 403 kts | 351° |
| 2026-05-05 16:02 | 28.93741 | -81.29671 | 18421 ft | 405 kts | 352° |
| 2026-05-05 16:02 | 28.96563 | -81.29911 | 18875 ft | 407 kts | 351° |
| 2026-05-05 16:02 | 28.99398 | -81.30148 | 19331 ft | 409 kts | 351° |
| 2026-05-05 16:03 | 29.02239 | -81.30414 | 19775 ft | 411 kts | 350° |
| 2026-05-05 16:03 | 29.05091 | -81.30720 | 20231 ft | 412 kts | 349° |
| 2026-05-05 16:03 | 29.07947 | -81.31055 | 20667 ft | 413 kts | 349° |
| 2026-05-05 16:03 | 29.10813 | -81.31398 | 21090 ft | 415 kts | 349° |
| 2026-05-05 16:04 | 29.13698 | -81.31679 | 21499 ft | 417 kts | 351° |
| 2026-05-05 16:04 | 29.16567 | -81.31881 | 21893 ft | 420 kts | 351° |
| 2026-05-05 16:04 | 29.19493 | -81.32036 | 22295 ft | 422 kts | 352° |
| 2026-05-05 16:04 | 29.22430 | -81.32171 | 22678 ft | 423 kts | 352° |
| 2026-05-05 16:05 | 29.25376 | -81.32310 | 23057 ft | 425 kts | 351° |
| 2026-05-05 16:05 | 29.28334 | -81.32464 | 23489 ft | 426 kts | 351° |
| 2026-05-05 16:05 | 29.31299 | -81.32631 | 23856 ft | 427 kts | 351° |
| 2026-05-05 16:05 | 29.34270 | -81.32809 | 24180 ft | 428 kts | 351° |
| 2026-05-05 16:06 | 29.37254 | -81.32993 | 24487 ft | 430 kts | 351° |
| 2026-05-05 16:06 | 29.40210 | -81.33179 | 24789 ft | 432 kts | 351° |
| 2026-05-05 16:06 | 29.43215 | -81.33368 | 25089 ft | 433 kts | 351° |
| 2026-05-05 16:06 | 29.46223 | -81.33554 | 25377 ft | 435 kts | 351° |
| 2026-05-05 16:07 | 29.49262 | -81.33739 | 25675 ft | 437 kts | 351° |
| 2026-05-05 16:07 | 29.52300 | -81.33921 | 25980 ft | 439 kts | 351° |
| 2026-05-05 16:07 | 29.55354 | -81.34103 | 26301 ft | 440 kts | 351° |
| 2026-05-05 16:07 | 29.58413 | -81.34286 | 26635 ft | 442 kts | 351° |
| 2026-05-05 16:08 | 29.61493 | -81.34470 | 26941 ft | 443 kts | 351° |
| 2026-05-05 16:08 | 29.64577 | -81.34657 | 27255 ft | 444 kts | 351° |
| 2026-05-05 16:08 | 29.67612 | -81.34835 | 27668 ft | 442 kts | 351° |
| 2026-05-05 16:08 | 29.70683 | -81.35009 | 28091 ft | 441 kts | 351° |
| 2026-05-05 16:09 | 29.73741 | -81.35181 | 28505 ft | 439 kts | 351° |
| 2026-05-05 16:09 | 29.76790 | -81.35351 | 28921 ft | 438 kts | 351° |
| 2026-05-05 16:09 | 29.79829 | -81.35519 | 29332 ft | 437 kts | 351° |
| 2026-05-05 16:09 | 29.82863 | -81.35684 | 29744 ft | 436 kts | 351° |
| 2026-05-05 16:10 | 29.85885 | -81.35851 | 30215 ft | 433 kts | 351° |
| 2026-05-05 16:10 | 29.88886 | -81.36022 | 30615 ft | 430 kts | 351° |
| 2026-05-05 16:10 | 29.91825 | -81.36193 | 31037 ft | 426 kts | 350° |
| 2026-05-05 16:10 | 29.94768 | -81.36366 | 31504 ft | 421 kts | 350° |
| 2026-05-05 16:11 | 29.97678 | -81.36537 | 31987 ft | 416 kts | 350° |
| 2026-05-05 16:11 | 30.06168 | -81.37029 | 33454 ft | 399 kts | 349° |
| 2026-05-05 16:12 | 30.08924 | -81.37187 | 33939 ft | 393 kts | 349° |
| 2026-05-05 16:12 | 30.14321 | -81.37495 | 34789 ft | 384 kts | 349° |
| 2026-05-05 16:13 | 30.22221 | -81.37962 | 35664 ft | 378 kts | 348° |
| 2026-05-05 16:13 | 30.24850 | -81.38117 | 35927 ft | 377 kts | 348° |
| 2026-05-05 16:13 | 30.27474 | -81.38270 | 36097 ft | 378 kts | 348° |
| 2026-05-05 16:14 | 30.37928 | -81.38878 | 36137 ft | 377 kts | 348° |
| 2026-05-05 16:15 | 30.48415 | -81.39484 | 36137 ft | 377 kts | 348° |
| 2026-05-05 16:16 | 30.58911 | -81.40030 | 36151 ft | 378 kts | 349° |
| 2026-05-05 16:17 | 30.66759 | -81.40450 | 36157 ft | 378 kts | 349° |
| 2026-05-05 16:18 | 30.74634 | -81.40863 | 36145 ft | 381 kts | 349° |
| 2026-05-05 16:19 | 30.82690 | -81.41297 | 36141 ft | 389 kts | 349° |
| 2026-05-05 16:19 | 30.90764 | -81.41724 | 36128 ft | 389 kts | 349° |
| 2026-05-05 16:20 | 31.01587 | -81.42294 | 36154 ft | 390 kts | 349° |
| 2026-05-05 16:22 | 31.15135 | -81.43016 | 36155 ft | 392 kts | 349° |
| 2026-05-05 16:23 | 31.26090 | -81.42886 | 36152 ft | 411 kts | 5° |
| 2026-05-05 16:23 | 31.28764 | -81.41676 | 36152 ft | 424 kts | 13° |
| 2026-05-05 16:23 | 31.34118 | -81.38764 | 36152 ft | 425 kts | 13° |
| 2026-05-05 16:24 | 31.39488 | -81.35848 | 36152 ft | 426 kts | 13° |
| 2026-05-05 16:25 | 31.47553 | -81.31461 | 36154 ft | 426 kts | 13° |
| 2026-05-05 16:25 | 31.55572 | -81.27102 | 36166 ft | 423 kts | 13° |
| 2026-05-05 16:26 | 31.66248 | -81.21279 | 36147 ft | 423 kts | 13° |
| 2026-05-05 16:27 | 31.71580 | -81.18368 | 36141 ft | 423 kts | 13° |
| 2026-05-05 16:27 | 31.76880 | -81.15467 | 36167 ft | 423 kts | 13° |
| 2026-05-05 16:28 | 31.82191 | -81.12554 | 36122 ft | 420 kts | 13° |
| 2026-05-05 16:28 | 31.87498 | -81.09652 | 36125 ft | 421 kts | 13° |
| 2026-05-05 16:29 | 31.92808 | -81.06738 | 36125 ft | 422 kts | 13° |
| 2026-05-05 16:29 | 31.98093 | -81.03826 | 36130 ft | 422 kts | 13° |
| 2026-05-05 16:30 | 32.03414 | -81.00887 | 36174 ft | 423 kts | 14° |
| 2026-05-05 16:30 | 32.08699 | -80.97924 | 36115 ft | 420 kts | 14° |
| 2026-05-05 16:31 | 32.13975 | -80.94961 | 36117 ft | 420 kts | 14° |
| 2026-05-05 16:31 | 32.19263 | -80.91999 | 36161 ft | 421 kts | 14° |
| 2026-05-05 16:32 | 32.24531 | -80.89047 | 36194 ft | 422 kts | 14° |
| 2026-05-05 16:32 | 32.29831 | -80.86065 | 36207 ft | 422 kts | 14° |
| 2026-05-05 16:33 | 32.35103 | -80.83091 | 36150 ft | 419 kts | 14° |
| 2026-05-05 16:33 | 32.40369 | -80.80130 | 36150 ft | 419 kts | 14° |
| 2026-05-05 16:34 | 32.45601 | -80.77179 | 36155 ft | 420 kts | 14° |
| 2026-05-05 16:34 | 32.50881 | -80.74188 | 36159 ft | 421 kts | 14° |
| 2026-05-05 16:35 | 32.56167 | -80.71199 | 36182 ft | 421 kts | 15° |
| 2026-05-05 16:35 | 32.61439 | -80.68216 | 36154 ft | 420 kts | 15° |
| 2026-05-05 16:36 | 32.66678 | -80.65248 | 36152 ft | 420 kts | 15° |
| 2026-05-05 16:36 | 32.71956 | -80.62248 | 36149 ft | 421 kts | 15° |
| 2026-05-05 16:37 | 32.77221 | -80.59152 | 36153 ft | 423 kts | 16° |
| 2026-05-05 16:37 | 32.82476 | -80.56003 | 36148 ft | 422 kts | 16° |
| 2026-05-05 16:38 | 32.87678 | -80.52886 | 36174 ft | 421 kts | 17° |
| 2026-05-05 16:38 | 32.92929 | -80.49760 | 36162 ft | 423 kts | 17° |
| 2026-05-05 16:39 | 32.98203 | -80.46624 | 36154 ft | 424 kts | 17° |
| 2026-05-05 16:39 | 33.03477 | -80.43477 | 36151 ft | 424 kts | 17° |
| 2026-05-05 16:40 | 33.08752 | -80.40317 | 36148 ft | 425 kts | 17° |
| 2026-05-05 16:40 | 33.14004 | -80.37177 | 36156 ft | 425 kts | 17° |
| 2026-05-05 16:41 | 33.19290 | -80.34009 | 36157 ft | 425 kts | 17° |
| 2026-05-05 16:41 | 33.24568 | -80.30835 | 36152 ft | 425 kts | 17° |
| 2026-05-05 16:42 | 33.29852 | -80.27659 | 36163 ft | 425 kts | 17° |
| 2026-05-05 16:42 | 33.35104 | -80.24504 | 36114 ft | 426 kts | 16° |
| 2026-05-05 16:43 | 33.40409 | -80.21311 | 36136 ft | 427 kts | 16° |
| 2026-05-05 16:43 | 33.45721 | -80.18110 | 36151 ft | 428 kts | 16° |
| 2026-05-05 16:44 | 33.51044 | -80.14888 | 36189 ft | 429 kts | 17° |
| 2026-05-05 16:44 | 33.56337 | -80.11681 | 36212 ft | 429 kts | 17° |
| 2026-05-05 16:45 | 33.61647 | -80.08461 | 36165 ft | 427 kts | 17° |
| 2026-05-05 16:45 | 33.66950 | -80.05243 | 36154 ft | 428 kts | 17° |
| 2026-05-05 16:46 | 33.72273 | -80.02015 | 36153 ft | 429 kts | 17° |
| 2026-05-05 16:46 | 33.77565 | -79.98799 | 36148 ft | 429 kts | 17° |
| 2026-05-05 16:47 | 33.82896 | -79.95544 | 36168 ft | 430 kts | 17° |
| 2026-05-05 16:47 | 33.88231 | -79.92294 | 36153 ft | 430 kts | 17° |
| 2026-05-05 16:48 | 33.93571 | -79.89031 | 36158 ft | 431 kts | 17° |
| 2026-05-05 16:48 | 33.98918 | -79.85762 | 36158 ft | 431 kts | 17° |
| 2026-05-05 16:49 | 34.04235 | -79.82511 | 36165 ft | 432 kts | 17° |
| 2026-05-05 16:49 | 34.09581 | -79.79223 | 36190 ft | 431 kts | 17° |
| 2026-05-05 16:50 | 34.14933 | -79.75932 | 36180 ft | 432 kts | 17° |
| 2026-05-05 16:50 | 34.20282 | -79.72642 | 36175 ft | 432 kts | 17° |
| 2026-05-05 16:51 | 34.25634 | -79.69349 | 36172 ft | 432 kts | 17° |
| 2026-05-05 16:51 | 34.30953 | -79.66063 | 36171 ft | 432 kts | 17° |
| 2026-05-05 16:52 | 34.36287 | -79.62758 | 36145 ft | 430 kts | 17° |
| 2026-05-05 16:52 | 34.41628 | -79.59464 | 36147 ft | 431 kts | 17° |
| 2026-05-05 16:53 | 34.46976 | -79.56159 | 36142 ft | 432 kts | 17° |
| 2026-05-05 16:53 | 34.52290 | -79.52859 | 36150 ft | 432 kts | 18° |
| 2026-05-05 16:54 | 34.57637 | -79.49489 | 36170 ft | 434 kts | 19° |
| 2026-05-05 16:54 | 34.62929 | -79.45929 | 36167 ft | 436 kts | 20° |
| 2026-05-05 16:55 | 34.68220 | -79.42320 | 36189 ft | 433 kts | 17° |
| 2026-05-05 16:55 | 34.70932 | -79.40975 | 36185 ft | 421 kts | 8° |
| 2026-05-05 16:55 | 34.73758 | -79.40220 | 36182 ft | 414 kts | 2° |
| 2026-05-05 16:56 | 34.79434 | -79.39033 | 36193 ft | 414 kts | 2° |
| 2026-05-05 16:56 | 34.85114 | -79.37826 | 36180 ft | 415 kts | 2° |
| 2026-05-05 16:57 | 34.90793 | -79.36611 | 36170 ft | 415 kts | 2° |
| 2026-05-05 16:57 | 34.96445 | -79.35405 | 36126 ft | 415 kts | 2° |
| 2026-05-05 16:58 | 35.02128 | -79.34190 | 36122 ft | 415 kts | 2° |
| 2026-05-05 16:58 | 35.07825 | -79.32980 | 36135 ft | 416 kts | 2° |
| 2026-05-05 16:59 | 35.13520 | -79.31766 | 36131 ft | 416 kts | 2° |
| 2026-05-05 16:59 | 35.19183 | -79.30543 | 36163 ft | 416 kts | 2° |
| 2026-05-05 17:00 | 35.24889 | -79.29308 | 36159 ft | 417 kts | 2° |
| 2026-05-05 17:00 | 35.30597 | -79.28075 | 36175 ft | 417 kts | 2° |
| 2026-05-05 17:01 | 35.36309 | -79.26843 | 36147 ft | 417 kts | 2° |
| 2026-05-05 17:01 | 35.42027 | -79.25610 | 36136 ft | 417 kts | 2° |
| 2026-05-05 17:02 | 35.47706 | -79.24382 | 36134 ft | 418 kts | 2° |
| 2026-05-05 17:02 | 35.53429 | -79.23147 | 36134 ft | 418 kts | 2° |
| 2026-05-05 17:03 | 35.59155 | -79.21905 | 36133 ft | 418 kts | 2° |
| 2026-05-05 17:03 | 35.64878 | -79.20664 | 36134 ft | 418 kts | 2° |
| 2026-05-05 17:04 | 35.70566 | -79.19433 | 36132 ft | 418 kts | 2° |
| 2026-05-05 17:04 | 35.76157 | -79.17095 | 36149 ft | 439 kts | 22° |
| 2026-05-05 17:05 | 35.81238 | -79.12757 | 36134 ft | 446 kts | 26° |
| 2026-05-05 17:05 | 35.86308 | -79.08341 | 36118 ft | 446 kts | 26° |
| 2026-05-05 17:06 | 35.91386 | -79.03926 | 36136 ft | 447 kts | 27° |
| 2026-05-05 17:06 | 35.96456 | -78.99503 | 36122 ft | 447 kts | 27° |
| 2026-05-05 17:07 | 36.01497 | -78.95093 | 36138 ft | 447 kts | 27° |
| 2026-05-05 17:07 | 36.06564 | -78.90650 | 36125 ft | 447 kts | 27° |
| 2026-05-05 17:08 | 36.11647 | -78.86198 | 36126 ft | 447 kts | 27° |
| 2026-05-05 17:08 | 36.16724 | -78.81730 | 36126 ft | 448 kts | 27° |
| 2026-05-05 17:09 | 36.21767 | -78.77288 | 36126 ft | 448 kts | 27° |
| 2026-05-05 17:09 | 36.26855 | -78.72812 | 36114 ft | 449 kts | 27° |
| 2026-05-05 17:10 | 36.31939 | -78.68317 | 36120 ft | 449 kts | 27° |
| 2026-05-05 17:10 | 36.37033 | -78.63808 | 36113 ft | 450 kts | 28° |
| 2026-05-05 17:11 | 36.42091 | -78.59331 | 36112 ft | 450 kts | 28° |
| 2026-05-05 17:11 | 36.47214 | -78.54903 | 36116 ft | 448 kts | 26° |
| 2026-05-05 17:12 | 36.52475 | -78.50798 | 36108 ft | 446 kts | 24° |
| 2026-05-05 17:12 | 36.57779 | -78.46783 | 36095 ft | 446 kts | 24° |
| 2026-05-05 17:13 | 36.63019 | -78.42729 | 36091 ft | 447 kts | 25° |
| 2026-05-05 17:13 | 36.68274 | -78.38573 | 36110 ft | 448 kts | 25° |
| 2026-05-05 17:14 | 36.73531 | -78.34409 | 36105 ft | 448 kts | 25° |
| 2026-05-05 17:14 | 36.78809 | -78.30251 | 36094 ft | 449 kts | 25° |
| 2026-05-05 17:15 | 36.84052 | -78.26121 | 36092 ft | 449 kts | 25° |
| 2026-05-05 17:15 | 36.89324 | -78.21938 | 36122 ft | 449 kts | 25° |
| 2026-05-05 17:16 | 36.94602 | -78.17742 | 36065 ft | 450 kts | 25° |
| 2026-05-05 17:16 | 36.99891 | -78.13542 | 36065 ft | 450 kts | 25° |
| 2026-05-05 17:17 | 37.05177 | -78.09337 | 36068 ft | 450 kts | 25° |
| 2026-05-05 17:17 | 37.10440 | -78.05161 | 36068 ft | 450 kts | 25° |
| 2026-05-05 17:18 | 37.15729 | -78.00946 | 36074 ft | 452 kts | 25° |
| 2026-05-05 17:18 | 37.21033 | -77.96697 | 36065 ft | 453 kts | 25° |
| 2026-05-05 17:19 | 37.26341 | -77.92439 | 36069 ft | 453 kts | 26° |
| 2026-05-05 17:19 | 37.31627 | -77.88195 | 36060 ft | 454 kts | 26° |
| 2026-05-05 17:20 | 37.36948 | -77.83920 | 36060 ft | 454 kts | 26° |
| 2026-05-05 17:20 | 37.42277 | -77.79630 | 36071 ft | 455 kts | 26° |
| 2026-05-05 17:21 | 37.47606 | -77.75330 | 36068 ft | 455 kts | 26° |
| 2026-05-05 17:22 | 37.55568 | -77.68896 | 36087 ft | 456 kts | 26° |
| 2026-05-05 17:22 | 37.60915 | -77.64582 | 36065 ft | 456 kts | 26° |
| 2026-05-05 17:23 | 37.66264 | -77.60264 | 36055 ft | 457 kts | 26° |
| 2026-05-05 17:23 | 37.71622 | -77.55930 | 36058 ft | 457 kts | 27° |
| 2026-05-05 17:24 | 37.76938 | -77.51612 | 36060 ft | 458 kts | 27° |
| 2026-05-05 17:24 | 37.82293 | -77.47256 | 36057 ft | 458 kts | 27° |
| 2026-05-05 17:25 | 37.87644 | -77.42895 | 36052 ft | 458 kts | 27° |
| 2026-05-05 17:25 | 37.92997 | -77.38523 | 36047 ft | 458 kts | 27° |
| 2026-05-05 17:26 | 37.98312 | -77.34182 | 36032 ft | 458 kts | 27° |
| 2026-05-05 17:26 | 38.03674 | -77.29807 | 36020 ft | 458 kts | 27° |
| 2026-05-05 17:27 | 38.09029 | -77.25423 | 36010 ft | 459 kts | 27° |
| 2026-05-05 17:27 | 38.14399 | -77.21023 | 36016 ft | 459 kts | 27° |
| 2026-05-05 17:28 | 38.18851 | -77.17367 | 36029 ft | 459 kts | 27° |
| 2026-05-05 17:28 | 38.25092 | -77.12233 | 36013 ft | 460 kts | 28° |
| 2026-05-05 17:29 | 38.30445 | -77.07770 | 36009 ft | 461 kts | 30° |
| 2026-05-05 17:29 | 38.34765 | -77.03748 | 36005 ft | 464 kts | 32° |
| 2026-05-05 17:30 | 38.39855 | -76.98684 | 36018 ft | 465 kts | 33° |
| 2026-05-05 17:30 | 38.45799 | -76.92819 | 36010 ft | 465 kts | 32° |
| 2026-05-05 17:31 | 38.50085 | -76.88682 | 36005 ft | 465 kts | 32° |
| 2026-05-05 17:31 | 38.55255 | -76.83712 | 36009 ft | 465 kts | 32° |
| 2026-05-05 17:32 | 38.61265 | -76.77917 | 36019 ft | 465 kts | 32° |
| 2026-05-05 17:32 | 38.66419 | -76.72896 | 36005 ft | 466 kts | 32° |
| 2026-05-05 17:33 | 38.70703 | -76.68714 | 35984 ft | 466 kts | 32° |
| 2026-05-05 17:33 | 38.75861 | -76.63684 | 35985 ft | 466 kts | 32° |
| 2026-05-05 17:34 | 38.81022 | -76.58652 | 35998 ft | 466 kts | 32° |
| 2026-05-05 17:34 | 38.87019 | -76.52788 | 35988 ft | 466 kts | 32° |
| 2026-05-05 17:35 | 38.91269 | -76.48620 | 35965 ft | 455 kts | 32° |
| 2026-05-05 17:35 | 38.96255 | -76.43727 | 35585 ft | 454 kts | 32° |
| 2026-05-05 17:35 | 38.98758 | -76.41263 | 35010 ft | 453 kts | 32° |
| 2026-05-05 17:36 | 39.01261 | -76.38794 | 34343 ft | 453 kts | 32° |
| 2026-05-05 17:36 | 39.03737 | -76.36303 | 33623 ft | 452 kts | 34° |
| 2026-05-05 17:36 | 39.06142 | -76.33683 | 33037 ft | 454 kts | 36° |
| 2026-05-05 17:36 | 39.08495 | -76.30945 | 32771 ft | 459 kts | 38° |
| 2026-05-05 17:37 | 39.10834 | -76.28133 | 32529 ft | 461 kts | 38° |
| 2026-05-05 17:37 | 39.13168 | -76.25303 | 32259 ft | 462 kts | 38° |
| 2026-05-05 17:37 | 39.15522 | -76.22465 | 31454 ft | 466 kts | 38° |
| 2026-05-05 17:37 | 39.17879 | -76.19657 | 30586 ft | 469 kts | 38° |
| 2026-05-05 17:38 | 39.20307 | -76.16805 | 29535 ft | 475 kts | 38° |
| 2026-05-05 17:38 | 39.22767 | -76.13939 | 28541 ft | 478 kts | 38° |
| 2026-05-05 17:38 | 39.25241 | -76.11064 | 27566 ft | 479 kts | 38° |
| 2026-05-05 17:38 | 39.27731 | -76.08167 | 26469 ft | 484 kts | 38° |
| 2026-05-05 17:39 | 39.30222 | -76.05256 | 26102 ft | 483 kts | 39° |
| 2026-05-05 17:39 | 39.32708 | -76.02336 | 25767 ft | 484 kts | 39° |
| 2026-05-05 17:39 | 39.35197 | -75.99399 | 25395 ft | 486 kts | 39° |
| 2026-05-05 17:39 | 39.37694 | -75.96448 | 24994 ft | 487 kts | 39° |
| 2026-05-05 17:40 | 39.40165 | -75.93532 | 24591 ft | 488 kts | 39° |
| 2026-05-05 17:40 | 39.42674 | -75.90569 | 24170 ft | 489 kts | 39° |
| 2026-05-05 17:40 | 39.45181 | -75.87602 | 23751 ft | 488 kts | 39° |
| 2026-05-05 17:40 | 39.47681 | -75.84640 | 23314 ft | 486 kts | 39° |
| 2026-05-05 17:41 | 39.50167 | -75.81695 | 22826 ft | 483 kts | 39° |
| 2026-05-05 17:41 | 39.52638 | -75.78767 | 22348 ft | 480 kts | 39° |
| 2026-05-05 17:41 | 39.55063 | -75.75889 | 21906 ft | 477 kts | 39° |
| 2026-05-05 17:41 | 39.57526 | -75.72963 | 21493 ft | 474 kts | 39° |
| 2026-05-05 17:42 | 39.59921 | -75.70118 | 21112 ft | 472 kts | 39° |
| 2026-05-05 17:42 | 39.62338 | -75.67242 | 20737 ft | 471 kts | 39° |
| 2026-05-05 17:42 | 39.64738 | -75.64374 | 20388 ft | 469 kts | 39° |
| 2026-05-05 17:42 | 39.67133 | -75.61515 | 20044 ft | 468 kts | 39° |
| 2026-05-05 17:43 | 39.69531 | -75.58657 | 19702 ft | 466 kts | 39° |
| 2026-05-05 17:43 | 39.71913 | -75.55807 | 19314 ft | 465 kts | 40° |
| 2026-05-05 17:43 | 39.74283 | -75.52958 | 18870 ft | 463 kts | 40° |
| 2026-05-05 17:43 | 39.76636 | -75.50118 | 18424 ft | 460 kts | 40° |
| 2026-05-05 17:44 | 39.78972 | -75.47292 | 17877 ft | 459 kts | 40° |
| 2026-05-05 17:44 | 39.81303 | -75.44469 | 17328 ft | 456 kts | 40° |
| 2026-05-05 17:44 | 39.83614 | -75.41667 | 16783 ft | 448 kts | 40° |
| 2026-05-05 17:44 | 39.85829 | -75.38973 | 16325 ft | 425 kts | 40° |
| 2026-05-05 17:45 | 39.87902 | -75.36451 | 15955 ft | 402 kts | 39° |
| 2026-05-05 17:45 | 39.89895 | -75.34032 | 15584 ft | 382 kts | 39° |
| 2026-05-05 17:45 | 39.91800 | -75.31724 | 15240 ft | 369 kts | 39° |
| 2026-05-05 17:45 | 39.93668 | -75.29465 | 14876 ft | 362 kts | 39° |
| 2026-05-05 17:46 | 39.95479 | -75.27271 | 14509 ft | 352 kts | 39° |
| 2026-05-05 17:46 | 39.97268 | -75.25102 | 14133 ft | 351 kts | 39° |
| 2026-05-05 17:46 | 39.99052 | -75.22939 | 13743 ft | 350 kts | 39° |